This is the latest recevied weather packets stored in our database for station/object M7PDA-1. If no packets are shown the sender has not sent any weather packets the latest 10 day(s).
| Time | Temp. | Humidity | Pressure | Rain* | Wind** | Luminosity | Snow |
|---|---|---|---|---|---|---|---|
| 1787412145 | 19.44° C | 50% | 1025.7 hPa | - | - | - | - |
| 1787411244 | 21.11° C | 49% | 1025.5 hPa | - | - | - | - |
| 1787410343 | 21.11° C | 49% | 1025.5 hPa | - | - | - | - |
| 1787409442 | 21.11° C | 49% | 1025.4 hPa | - | - | - | - |
| 1787408542 | 21.11° C | 49% | 1025.5 hPa | - | - | - | - |
| 1787407641 | 22.78° C | 48% | 1025.4 hPa | - | - | - | - |
| 1787406740 | 20.56° C | 51% | 1025.4 hPa | - | - | - | - |
| 1787405839 | 19.44° C | 51% | 1025.5 hPa | - | - | - | - |
| 1787404938 | 20° C | 50% | 1025.4 hPa | - | - | - | - |
| 1787404037 | 20° C | 50% | 1025.4 hPa | - | - | - | - |
| 1787403137 | 21.11° C | 50% | 1025.1 hPa | - | - | - | - |
| 1787402236 | 22.22° C | 50% | 1025.1 hPa | - | - | - | - |
| 1787401335 | 21.11° C | 51% | 1025.3 hPa | - | - | - | - |
| 1787400434 | 20° C | 51% | 1025.3 hPa | - | - | - | - |
| 1787399534 | 18.33° C | 52% | 1025.3 hPa | - | - | - | - |
| 1787398633 | 20.56° C | 50% | 1025.1 hPa | - | - | - | - |
| 1787397732 | 21.11° C | 49% | 1025 hPa | - | - | - | - |
| 1787396831 | 21.11° C | 50% | 1025 hPa | - | - | - | - |
| 1787395931 | 20.56° C | 51% | 1025 hPa | - | - | - | - |
| 1787395030 | 20° C | 52% | 1025.3 hPa | - | - | - | - |
| 1787394129 | 19.44° C | 53% | 1025.3 hPa | - | - | - | - |
| 1787393228 | 19.44° C | 53% | 1025.3 hPa | - | - | - | - |
| 1787392327 | 18.33° C | 54% | 1025.4 hPa | - | - | - | - |
| 1787391426 | 17.78° C | 55% | 1025.4 hPa | - | - | - | - |
| 1787390525 | 16.67° C | 56% | 1025.3 hPa | - | - | - | - |
* Rain since midnight (hover to see other rain measurements)
** Current wind speed in m/s (hover to see current wind gust speed)